Terminal Aerodrome Forecast
Issued by NWS

Home | Current Version | Previous Version | Text Only | Print | Product List | Glossary On
Versions: 1 2 3 4 5 6 7 8 9 10 11 12 13 14 15 16 17 18 19 20 21 22 23 24 25 26
277
FTUS43 KILX 021124
TAFDEC
TAF
KDEC 021124Z 0212/0312 35009KT P6SM VCSH OVC011
     FM021900 35009KT P6SM VCSH OVC020
     FM030000 34005KT P6SM BKN035
     FM030600 33004KT P6SM SCT120=

USA.gov is the U.S. government's official web portal to all federal, state and local government web resources and services.